Kingfisher, Oklahoma
Current Conditions -  °F | °C
As of 6:55 AM on Tuesday 21 Oct 2014 (Local Time) from KRCE Reporting Station
NA  
Wind Chill: 59°   Ceiling: NA
Heat Index: 59°   Visibility: NA
Dew Point: 59°   Wind: 6mph
Humidity: 100%   Direction: 190°S
Pressure: 30.08"   Gusts: NA
Location:  35.86°N, 97.93°W
Report Text: KRCE 211155Z AUTO 19005KT 15/15 A3008 RMK AO2
Loading
Personal Weather Stations






























Interactive Weather Map
Tropical Storm Tracking
New forecast layout! Learn more

10-Day Weather Forecast

Advertisements
Track Severe Weather on mobile